Time;durP1;ratioP1;P1;durP2;ratioP2;P2;SDS_P1;SDS_P2;PMS_P1;PMS_P2;Temp;Humidity;BMP_temperature;BMP_pressure;BME280_temperature;BME280_humidity;BME280_pressure;Samples;Min_cycle;Max_cycle;Signal;HPM_P1;HPM_P2
2021/11/05 06:58:26;;;;;;;12.95;8.10;;;;;;;5.02;100.00;99321.88;5129576;27;20374;-79
2021/11/05 07:00:54;;;;;;;;;;;;;;;5.13;100.00;99339.72;5129660;28;20078;-79
2021/11/05 07:03:49;;;;;;;8.02;5.63;;;;;;;5.06;100.00;99334.06;5119400;28;19943;-79
2021/11/05 07:06:23;;;;;;;7.80;5.78;;;;;;;5.04;100.00;99340.59;5109844;28;20044;-79
2021/11/05 07:08:54;;;;;;;8.80;5.72;;;;;;;5.07;100.00;99345.69;5109723;28;20079;-79
2021/11/05 07:11:23;;;;;;;12.40;5.65;;;;;;;5.04;100.00;99341.44;5109658;28;20475;-79
2021/11/05 07:14:05;;;;;;;7.97;6.40;;;;;;;5.22;100.00;99370.34;5109120;28;20510;-79
2021/11/05 07:16:33;;;;;;;7.90;6.20;;;;;;;5.10;100.00;99357.06;5120151;28;20040;-79
2021/11/05 07:19:11;;;;;;;8.05;5.55;;;;;;;5.15;100.00;99351.22;5122225;28;20055;-79
2021/11/05 07:21:44;;;;;;;9.88;6.05;;;;;;;5.16;100.00;99362.84;5109148;28;20065;-79
2021/11/05 07:24:11;;;;;;;11.15;6.35;;;;;;;5.26;100.00;99391.47;5109429;28;20056;-79
2021/11/05 07:26:41;;;;;;;7.32;5.85;;;;;;;5.23;100.00;99380.13;5109134;28;20044;-79
2021/11/05 07:29:11;;;;;;;;;;;;;;;5.42;100.00;99401.66;5109859;28;20059;-79
2021/11/05 07:31:49;;;;;;;7.13;5.32;;;;;;;5.47;100.00;99402.06;5109072;28;19920;-79
2021/11/05 07:34:15;;;;;;;11.50;5.70;;;;;;;5.55;100.00;99420.19;5123329;28;20054;-79
2021/11/05 07:36:42;;;;;;;12.57;7.07;;;;;;;5.36;100.00;99402.25;5109366;28;20055;-79
2021/11/05 07:39:09;;;;;;;9.02;6.47;;;;;;;5.38;100.00;99416.41;5109086;28;20048;-79
2021/11/05 07:41:36;;;;;;;12.30;5.60;;;;;;;5.37;100.00;99427.34;5108834;28;20055;-79
2021/11/05 07:44:03;;;;;;;7.63;5.13;;;;;;;5.35;100.00;99423.97;5128822;27;20487;-79
2021/11/05 07:46:40;;;;;;;9.38;6.07;;;;;;;5.44;100.00;99440.09;5100833;28;20043;-79
2021/11/05 07:49:13;;;;;;;9.85;5.15;;;;;;;5.43;100.00;99443.78;5100647;28;20039;-79
2021/11/05 07:51:39;;;;;;;5.72;4.90;;;;;;;5.34;100.00;99425.78;5108680;28;20055;-79
2021/11/05 07:54:07;;;;;;;7.15;4.93;;;;;;;5.50;100.00;99454.84;5108805;28;20168;-79
2021/11/05 07:56:34;;;;;;;8.10;4.68;;;;;;;5.39;100.00;99442.41;5108675;28;20135;-79
2021/11/05 07:59:01;;;;;;;9.20;5.05;;;;;;;5.51;100.00;99464.66;5094620;28;20456;-79
2021/11/05 08:01:28;;;;;;;13.63;5.68;;;;;;;5.42;100.00;99438.53;5086636;28;20067;-79
2021/11/05 08:03:56;;;;;;;7.88;5.35;;;;;;;5.59;100.00;99463.94;5094938;28;20495;-79
2021/11/05 08:06:23;;;;;;;6.93;5.60;;;;;;;5.65;100.00;99461.47;5095031;28;20101;-79
2021/11/05 08:08:50;;;;;;;7.32;5.35;;;;;;;5.68;100.00;99473.84;5095058;28;20655;-79
2021/11/05 08:11:17;;;;;;;8.98;6.30;;;;;;;5.67;100.00;99461.34;5095108;28;20076;-79
2021/11/05 08:13:44;;;;;;;11.90;8.05;;;;;;;5.81;100.00;99479.75;5094600;28;20056;-79
2021/11/05 08:16:11;;;;;;;16.45;10.65;;;;;;;5.78;100.00;99476.50;5094926;28;20475;-79
2021/11/05 08:18:39;;;;;;;10.38;7.93;;;;;;;5.88;100.00;99490.81;5093582;28;20097;-79
2021/11/05 08:21:07;;;;;;;8.15;5.57;;;;;;;5.82;100.00;99484.16;5077108;28;20051;-79
2021/11/05 08:23:34;;;;;;;8.90;5.65;;;;;;;5.93;100.00;99491.25;5074306;28;20059;-79
2021/11/05 08:26:01;;;;;;;9.23;6.05;;;;;;;5.88;100.00;99496.22;5074168;28;20135;-79
2021/11/05 08:28:28;;;;;;;8.25;5.75;;;;;;;6.10;100.00;99505.00;5074271;28;20098;-79
2021/11/05 08:30:55;;;;;;;9.10;6.22;;;;;;;6.16;100.00;99507.09;5074413;28;20488;-79
2021/11/05 08:33:25;;;;;;;11.13;6.63;;;;;;;6.25;100.00;99503.50;5081122;28;20055;-79
2021/11/05 08:35:52;;;;;;;7.45;5.53;;;;;;;6.20;100.00;99505.78;5088695;28;20472;-79
2021/11/05 08:38:22;;;;;;;8.35;5.55;;;;;;;6.18;100.00;99513.19;5074339;28;20045;-79
2021/11/05 08:40:52;;;;;;;7.80;5.47;;;;;;;6.28;100.00;99516.69;5074357;28;20061;-79
2021/11/05 08:43:22;;;;;;;8.18;5.20;;;;;;;6.29;100.00;99520.25;5073844;28;20041;-79
2021/11/05 08:45:50;;;;;;;9.13;5.38;;;;;;;6.45;100.00;99530.41;5074513;28;20052;-79
2021/11/05 08:48:18;;;;;;;7.45;5.30;;;;;;;6.56;100.00;99527.50;5077010;28;20083;-79
2021/11/05 08:50:45;;;;;;;7.18;4.82;;;;;;;6.54;100.00;99526.81;5085674;28;20475;-79
2021/11/05 08:53:12;;;;;;;7.55;5.28;;;;;;;6.67;100.00;99532.72;5094135;28;20048;-79
2021/11/05 08:55:41;;;;;;;6.80;4.97;;;;;;;6.60;100.00;99537.03;5094243;28;20059;-79
2021/11/05 08:58:08;;;;;;;7.32;4.75;;;;;;;6.73;100.00;99540.22;5093686;28;20135;-79
2021/11/05 09:00:35;;;;;;;5.00;4.03;;;;;;;6.75;100.00;99540.06;5094149;28;20059;-79
2021/11/05 09:03:05;;;;;;;6.63;4.22;;;;;;;6.80;100.00;99545.84;5093582;28;20052;-79
2021/11/05 09:05:33;;;;;;;6.73;4.53;;;;;;;6.83;100.00;99547.41;5089490;28;20047;-79
2021/11/05 09:08:00;;;;;;;5.72;4.40;;;;;;;6.72;100.00;99540.38;5088906;28;20397;-79
2021/11/05 09:10:28;;;;;;;7.63;4.30;;;;;;;6.63;100.00;99544.81;5092938;28;20055;-79
2021/11/05 09:12:56;;;;;;;6.68;4.35;;;;;;;6.61;100.00;99548.66;5093363;28;20406;-79
2021/11/05 09:15:28;;;;;;;4.80;3.83;;;;;;;6.60;100.00;99546.97;5093677;28;20050;-79
2021/11/05 09:18:00;;;;;;;8.27;4.47;;;;;;;6.65;100.00;99577.94;5094000;28;20388;-79
2021/11/05 09:20:33;;;;;;;4.35;3.50;;;;;;;6.46;100.00;99567.22;5093716;28;20048;-79
2021/11/05 09:26:25;;;;;;;4.97;3.95;;;;;;;6.39;100.00;99556.16;5066717;28;20067;-79
2021/11/05 09:39:17;;;;;;;4.70;3.28;;;;;;;6.56;100.00;99589.63;4967863;28;20500;-79
2021/11/05 09:41:44;;;;;;;5.68;3.40;;;;;;;6.54;100.00;99581.69;5017318;28;20046;-79
2021/11/05 10:00:13;;;;;;;4.15;3.55;;;;;;;7.20;100.00;99614.06;5170372;23;20058;-78
2021/11/05 10:02:42;;;;;;;7.55;3.60;;;;;;;7.22;100.00;99623.72;4973738;28;20054;-78
2021/11/05 10:22:04;;;;;;;6.90;4.55;;;;;;;7.53;100.00;99639.59;4822268;29;20502;-78
2021/11/05 10:38:57;;;;;;;5.55;4.50;;;;;;;7.32;100.00;99645.31;4856855;29;20081;-78
2021/11/05 10:41:36;;;;;;;6.93;5.38;;;;;;;7.41;100.00;99638.97;4857546;29;20053;-78
2021/11/05 10:44:14;;;;;;;6.80;4.97;;;;;;;7.57;100.00;99645.53;4912627;29;20060;-78
2021/11/05 10:51:12;;;;;;;7.15;4.80;;;;;;;7.79;100.00;99655.91;4960457;28;20109;-78
2021/11/05 10:54:02;;;;;;;;;;;;;;;7.89;100.00;99649.56;4956819;28;20058;-79
2021/11/05 10:56:59;;;;;;;;;;;;;;;;;;;;;
2021/11/05 11:06:22;;;;;;;10.23;5.30;;;;;;;8.30;100.00;99658.88;4934508;29;20057;-78
2021/11/05 11:08:50;;;;;;;6.40;5.07;;;;;;;8.24;100.00;99664.94;4951215;29;20562;-79
2021/11/05 11:11:23;;;;;;;8.77;5.05;;;;;;;8.28;100.00;99660.03;4985917;28;20054;-79
2021/11/05 11:13:53;;;;;;;8.75;5.80;;;;;;;8.30;100.00;99666.16;4985185;28;20182;-78
2021/11/05 11:16:27;;;;;;;7.90;5.55;;;;;;;8.29;100.00;99667.16;4979358;28;20054;-78
2021/11/05 11:19:00;;;;;;;7.97;5.38;;;;;;;8.27;100.00;99672.72;4959079;28;20127;-78
2021/11/05 11:21:30;;;;;;;9.05;5.18;;;;;;;8.23;100.00;99665.91;4953660;28;20066;-78
2021/11/05 11:23:57;;;;;;;8.93;5.93;;;;;;;8.34;100.00;99672.97;4953498;28;20058;-78
2021/11/05 11:26:54;;;;;;;7.78;5.15;;;;;;;8.21;100.00;99669.81;4953908;28;20059;-78
2021/11/05 11:33:26;;;;;;;14.77;8.05;;;;;;;8.27;100.00;99670.03;4964354;28;20109;-78
2021/11/05 11:36:05;;;;;;;9.50;6.20;;;;;;;8.35;100.00;99665.69;4981954;28;20465;-78
2021/11/05 11:39:13;;;;;;;11.20;7.20;;;;;;;8.34;100.00;99664.84;4976594;28;20058;-78
2021/11/05 11:45:29;;;;;;;48.58;20.80;;;;;;;8.61;100.00;99684.69;4975959;28;20121;-78
2021/11/05 11:51:54;;;;;;;11.70;7.90;;;;;;;8.46;100.00;99669.03;4919093;29;20052;-78
2021/11/05 11:54:41;;;;;;;10.13;6.78;;;;;;;8.44;100.00;99691.84;4906697;29;20052;-78
2021/11/05 11:57:22;;;;;;;10.60;6.72;;;;;;;8.56;100.00;99682.44;4955109;28;20067;-78
2021/11/05 12:00:08;;;;;;;9.98;6.72;;;;;;;8.47;100.00;99688.81;4957074;28;20082;-78
2021/11/05 12:02:37;;;;;;;10.40;6.50;;;;;;;8.49;100.00;99686.78;4956549;28;20142;-78
2021/11/05 12:05:36;;;;;;;9.07;6.50;;;;;;;8.55;100.00;99696.16;4956645;28;20102;-78
2021/11/05 12:08:29;;;;;;;9.60;5.75;;;;;;;8.43;99.25;99699.13;4968349;28;20051;-78
2021/11/05 12:11:17;;;;;;;6.72;5.38;;;;;;;8.48;99.66;99701.38;4957351;28;20145;-79
2021/11/05 12:13:47;;;;;;;7.18;5.18;;;;;;;8.57;100.00;99696.88;4975532;28;20133;-78
2021/11/05 12:16:25;;;;;;;8.20;5.93;;;;;;;8.64;99.32;99695.19;4975871;28;20043;-78
2021/11/05 12:19:17;;;;;;;8.55;5.72;;;;;;;8.65;98.90;99692.31;4975984;28;20059;-78
2021/11/05 12:21:52;;;;;;;8.00;5.40;;;;;;;8.57;99.37;99695.00;4976923;28;20054;-78
2021/11/05 12:24:28;;;;;;;8.05;5.32;;;;;;;8.50;97.17;99694.75;4975780;28;20058;-78
2021/11/05 12:27:14;;;;;;;8.75;5.78;;;;;;;8.41;100.00;99694.84;4956636;28;20187;-79
2021/11/05 12:29:57;;;;;;;7.20;5.47;;;;;;;8.66;97.93;99707.59;4956592;28;20059;-81
